sensor_id;sensor_type;location;lat;lon;timestamp;P1;durP1;ratioP1;P2;durP2;ratioP2
21089;SDS011;10703;51.020;6.128;2022-09-24T00:01:13;16.53;;;11.57;;
21089;SDS011;10703;51.020;6.128;2022-09-24T00:03:42;22.60;;;11.90;;
21089;SDS011;10703;51.020;6.128;2022-09-24T00:06:11;16.30;;;11.70;;
21089;SDS011;10703;51.020;6.128;2022-09-24T00:08:41;17.17;;;11.30;;
21089;SDS011;10703;51.020;6.128;2022-09-24T00:11:07;29.33;;;11.47;;
21089;SDS011;10703;51.020;6.128;2022-09-24T00:13:37;18.93;;;11.03;;
21089;SDS011;10703;51.020;6.128;2022-09-24T00:16:06;17.50;;;11.23;;
21089;SDS011;10703;51.020;6.128;2022-09-24T00:18:34;20.20;;;11.53;;
21089;SDS011;10703;51.020;6.128;2022-09-24T00:21:15;19.10;;;12.03;;
21089;SDS011;10703;51.020;6.128;2022-09-24T00:23:44;15.47;;;11.93;;
21089;SDS011;10703;51.020;6.128;2022-09-24T00:26:14;16.60;;;11.90;;
21089;SDS011;10703;51.020;6.128;2022-09-24T00:28:59;18.77;;;11.90;;
21089;SDS011;10703;51.020;6.128;2022-09-24T00:31:26;18.23;;;12.00;;
21089;SDS011;10703;51.020;6.128;2022-09-24T00:33:53;18.70;;;11.83;;
21089;SDS011;10703;51.020;6.128;2022-09-24T00:36:20;17.50;;;12.33;;
21089;SDS011;10703;51.020;6.128;2022-09-24T00:38:48;21.03;;;13.27;;
21089;SDS011;10703;51.020;6.128;2022-09-24T00:41:20;22.67;;;14.47;;
21089;SDS011;10703;51.020;6.128;2022-09-24T00:43:49;19.30;;;13.37;;
21089;SDS011;10703;51.020;6.128;2022-09-24T00:46:30;20.10;;;12.77;;
21089;SDS011;10703;51.020;6.128;2022-09-24T00:49:05;22.43;;;13.67;;
21089;SDS011;10703;51.020;6.128;2022-09-24T00:51:38;18.40;;;13.33;;
21089;SDS011;10703;51.020;6.128;2022-09-24T00:54:08;20.80;;;14.47;;
21089;SDS011;10703;51.020;6.128;2022-09-24T00:56:40;22.33;;;14.40;;
21089;SDS011;10703;51.020;6.128;2022-09-24T00:59:09;21.43;;;14.30;;
21089;SDS011;10703;51.020;6.128;2022-09-24T01:01:42;21.93;;;13.93;;
21089;SDS011;10703;51.020;6.128;2022-09-24T01:04:10;25.43;;;14.90;;
21089;SDS011;10703;51.020;6.128;2022-09-24T01:06:38;22.47;;;14.50;;
21089;SDS011;10703;51.020;6.128;2022-09-24T01:09:05;17.87;;;13.27;;
21089;SDS011;10703;51.020;6.128;2022-09-24T01:17:17;22.63;;;14.13;;
21089;SDS011;10703;51.020;6.128;2022-09-24T01:25:55;25.53;;;16.30;;
21089;SDS011;10703;51.020;6.128;2022-09-24T01:31:47;21.17;;;14.40;;
21089;SDS011;10703;51.020;6.128;2022-09-24T01:34:24;27.67;;;16.03;;
21089;SDS011;10703;51.020;6.128;2022-09-24T01:36:54;24.30;;;15.87;;
21089;SDS011;10703;51.020;6.128;2022-09-24T01:39:22;25.37;;;16.67;;
21089;SDS011;10703;51.020;6.128;2022-09-24T01:41:50;22.23;;;15.47;;
21089;SDS011;10703;51.020;6.128;2022-09-24T01:44:18;31.57;;;16.83;;
21089;SDS011;10703;51.020;6.128;2022-09-24T01:46:45;24.00;;;16.23;;
21089;SDS011;10703;51.020;6.128;2022-09-24T01:49:12;23.87;;;15.93;;
21089;SDS011;10703;51.020;6.128;2022-09-24T01:54:33;21.50;;;15.60;;
21089;SDS011;10703;51.020;6.128;2022-09-24T01:59:39;27.60;;;15.67;;
21089;SDS011;10703;51.020;6.128;2022-09-24T02:02:14;27.23;;;15.43;;
21089;SDS011;10703;51.020;6.128;2022-09-24T02:04:50;22.20;;;15.43;;
21089;SDS011;10703;51.020;6.128;2022-09-24T02:07:25;24.97;;;15.37;;
21089;SDS011;10703;51.020;6.128;2022-09-24T02:09:58;19.10;;;15.00;;
21089;SDS011;10703;51.020;6.128;2022-09-24T02:12:30;31.53;;;17.43;;
21089;SDS011;10703;51.020;6.128;2022-09-24T02:15:05;27.93;;;17.13;;
21089;SDS011;10703;51.020;6.128;2022-09-24T02:17:39;24.00;;;16.80;;
21089;SDS011;10703;51.020;6.128;2022-09-24T02:20:12;28.27;;;17.50;;
21089;SDS011;10703;51.020;6.128;2022-09-24T02:22:41;26.30;;;17.50;;
21089;SDS011;10703;51.020;6.128;2022-09-24T02:25:12;27.53;;;17.70;;
21089;SDS011;10703;51.020;6.128;2022-09-24T02:27:42;27.47;;;18.20;;
21089;SDS011;10703;51.020;6.128;2022-09-24T02:30:08;29.10;;;19.57;;
21089;SDS011;10703;51.020;6.128;2022-09-24T02:32:37;31.47;;;19.10;;
21089;SDS011;10703;51.020;6.128;2022-09-24T02:35:07;27.83;;;18.60;;
21089;SDS011;10703;51.020;6.128;2022-09-24T02:37:37;26.23;;;17.87;;
21089;SDS011;10703;51.020;6.128;2022-09-24T02:40:07;24.97;;;17.40;;
21089;SDS011;10703;51.020;6.128;2022-09-24T02:42:36;29.80;;;18.77;;
21089;SDS011;10703;51.020;6.128;2022-09-24T02:45:03;29.67;;;18.47;;
21089;SDS011;10703;51.020;6.128;2022-09-24T02:47:31;25.80;;;18.87;;
21089;SDS011;10703;51.020;6.128;2022-09-24T02:49:58;26.87;;;18.83;;
21089;SDS011;10703;51.020;6.128;2022-09-24T02:52:25;25.23;;;18.17;;
21089;SDS011;10703;51.020;6.128;2022-09-24T02:54:53;27.20;;;19.47;;
21089;SDS011;10703;51.020;6.128;2022-09-24T02:57:19;33.57;;;20.43;;
21089;SDS011;10703;51.020;6.128;2022-09-24T02:59:46;27.60;;;20.50;;
21089;SDS011;10703;51.020;6.128;2022-09-24T03:02:12;31.23;;;20.00;;
21089;SDS011;10703;51.020;6.128;2022-09-24T03:04:40;27.57;;;19.33;;
21089;SDS011;10703;51.020;6.128;2022-09-24T03:07:06;31.17;;;19.60;;
21089;SDS011;10703;51.020;6.128;2022-09-24T03:09:34;32.63;;;18.83;;
21089;SDS011;10703;51.020;6.128;2022-09-24T03:12:01;31.20;;;19.50;;
21089;SDS011;10703;51.020;6.128;2022-09-24T03:14:27;27.93;;;19.67;;
21089;SDS011;10703;51.020;6.128;2022-09-24T03:16:54;33.93;;;20.03;;
21089;SDS011;10703;51.020;6.128;2022-09-24T03:19:21;34.27;;;20.07;;
21089;SDS011;10703;51.020;6.128;2022-09-24T03:21:47;30.77;;;20.53;;
21089;SDS011;10703;51.020;6.128;2022-09-24T03:24:14;27.37;;;20.30;;
21089;SDS011;10703;51.020;6.128;2022-09-24T03:26:40;33.00;;;20.33;;
21089;SDS011;10703;51.020;6.128;2022-09-24T03:29:07;33.20;;;20.63;;
21089;SDS011;10703;51.020;6.128;2022-09-24T03:31:35;29.30;;;20.57;;
21089;SDS011;10703;51.020;6.128;2022-09-24T03:34:01;36.13;;;20.37;;
21089;SDS011;10703;51.020;6.128;2022-09-24T03:36:28;31.83;;;19.67;;
21089;SDS011;10703;51.020;6.128;2022-09-24T03:38:55;30.77;;;20.37;;
21089;SDS011;10703;51.020;6.128;2022-09-24T03:41:24;28.20;;;20.53;;
21089;SDS011;10703;51.020;6.128;2022-09-24T03:43:52;32.40;;;19.93;;
21089;SDS011;10703;51.020;6.128;2022-09-24T03:46:18;33.90;;;19.63;;
21089;SDS011;10703;51.020;6.128;2022-09-24T03:48:45;34.43;;;21.17;;
21089;SDS011;10703;51.020;6.128;2022-09-24T03:51:14;29.33;;;21.27;;
21089;SDS011;10703;51.020;6.128;2022-09-24T03:53:45;29.30;;;20.63;;
21089;SDS011;10703;51.020;6.128;2022-09-24T03:56:12;29.23;;;20.57;;
21089;SDS011;10703;51.020;6.128;2022-09-24T03:58:39;35.00;;;21.87;;
21089;SDS011;10703;51.020;6.128;2022-09-24T04:01:07;36.23;;;21.33;;
21089;SDS011;10703;51.020;6.128;2022-09-24T04:03:35;34.33;;;21.30;;
21089;SDS011;10703;51.020;6.128;2022-09-24T04:06:02;33.67;;;21.17;;
21089;SDS011;10703;51.020;6.128;2022-09-24T04:08:30;33.80;;;21.80;;
21089;SDS011;10703;51.020;6.128;2022-09-24T04:10:57;32.03;;;20.90;;
21089;SDS011;10703;51.020;6.128;2022-09-24T04:13:24;33.93;;;21.10;;
21089;SDS011;10703;51.020;6.128;2022-09-24T04:15:51;30.60;;;19.70;;
21089;SDS011;10703;51.020;6.128;2022-09-24T04:18:19;32.03;;;20.03;;
21089;SDS011;10703;51.020;6.128;2022-09-24T04:20:45;28.57;;;19.50;;
21089;SDS011;10703;51.020;6.128;2022-09-24T04:23:12;28.83;;;19.10;;
21089;SDS011;10703;51.020;6.128;2022-09-24T04:25:39;26.23;;;17.67;;
21089;SDS011;10703;51.020;6.128;2022-09-24T04:28:06;26.03;;;17.30;;
21089;SDS011;10703;51.020;6.128;2022-09-24T04:30:34;23.70;;;18.17;;
21089;SDS011;10703;51.020;6.128;2022-09-24T04:33:01;24.03;;;18.70;;
21089;SDS011;10703;51.020;6.128;2022-09-24T04:35:28;32.03;;;20.47;;
21089;SDS011;10703;51.020;6.128;2022-09-24T04:37:57;32.10;;;21.07;;
21089;SDS011;10703;51.020;6.128;2022-09-24T04:40:24;32.83;;;21.10;;
21089;SDS011;10703;51.020;6.128;2022-09-24T04:42:52;36.00;;;21.83;;
21089;SDS011;10703;51.020;6.128;2022-09-24T04:45:19;28.20;;;19.53;;
21089;SDS011;10703;51.020;6.128;2022-09-24T04:47:47;31.30;;;20.60;;
21089;SDS011;10703;51.020;6.128;2022-09-24T04:50:18;34.50;;;19.63;;
21089;SDS011;10703;51.020;6.128;2022-09-24T04:52:46;32.87;;;20.17;;
21089;SDS011;10703;51.020;6.128;2022-09-24T04:55:12;31.43;;;19.50;;
21089;SDS011;10703;51.020;6.128;2022-09-24T04:57:39;37.20;;;21.20;;
21089;SDS011;10703;51.020;6.128;2022-09-24T05:00:07;32.70;;;21.93;;
21089;SDS011;10703;51.020;6.128;2022-09-24T05:02:39;28.87;;;21.13;;
21089;SDS011;10703;51.020;6.128;2022-09-24T05:05:07;37.73;;;22.63;;
21089;SDS011;10703;51.020;6.128;2022-09-24T05:07:36;37.67;;;22.13;;
21089;SDS011;10703;51.020;6.128;2022-09-24T05:10:04;39.40;;;22.77;;
21089;SDS011;10703;51.020;6.128;2022-09-24T05:12:32;32.80;;;22.03;;
21089;SDS011;10703;51.020;6.128;2022-09-24T05:15:00;33.27;;;21.07;;
21089;SDS011;10703;51.020;6.128;2022-09-24T05:17:27;36.57;;;23.73;;
21089;SDS011;10703;51.020;6.128;2022-09-24T05:19:54;30.10;;;21.37;;
21089;SDS011;10703;51.020;6.128;2022-09-24T05:22:23;35.93;;;23.83;;
21089;SDS011;10703;51.020;6.128;2022-09-24T05:24:52;36.40;;;22.90;;
21089;SDS011;10703;51.020;6.128;2022-09-24T05:27:19;32.93;;;21.00;;
21089;SDS011;10703;51.020;6.128;2022-09-24T05:29:46;32.37;;;19.70;;
21089;SDS011;10703;51.020;6.128;2022-09-24T05:32:13;34.70;;;20.00;;
21089;SDS011;10703;51.020;6.128;2022-09-24T05:34:44;30.87;;;20.83;;
21089;SDS011;10703;51.020;6.128;2022-09-24T05:37:12;33.10;;;19.90;;
21089;SDS011;10703;51.020;6.128;2022-09-24T05:39:39;28.43;;;18.67;;
21089;SDS011;10703;51.020;6.128;2022-09-24T05:42:08;28.23;;;19.00;;
21089;SDS011;10703;51.020;6.128;2022-09-24T05:44:41;28.17;;;18.77;;
21089;SDS011;10703;51.020;6.128;2022-09-24T05:47:11;26.80;;;18.37;;
21089;SDS011;10703;51.020;6.128;2022-09-24T05:49:38;29.27;;;16.83;;
21089;SDS011;10703;51.020;6.128;2022-09-24T05:52:05;30.63;;;16.93;;
21089;SDS011;10703;51.020;6.128;2022-09-24T05:54:31;29.53;;;17.17;;
21089;SDS011;10703;51.020;6.128;2022-09-24T05:56:58;28.17;;;17.57;;
21089;SDS011;10703;51.020;6.128;2022-09-24T05:59:25;24.07;;;17.67;;
21089;SDS011;10703;51.020;6.128;2022-09-24T06:01:51;28.53;;;17.57;;
21089;SDS011;10703;51.020;6.128;2022-09-24T06:04:19;25.37;;;17.23;;
21089;SDS011;10703;51.020;6.128;2022-09-24T06:06:45;26.80;;;17.67;;
21089;SDS011;10703;51.020;6.128;2022-09-24T06:09:12;24.93;;;17.53;;
21089;SDS011;10703;51.020;6.128;2022-09-24T06:11:39;24.47;;;17.07;;
21089;SDS011;10703;51.020;6.128;2022-09-24T06:14:07;33.13;;;15.53;;
21089;SDS011;10703;51.020;6.128;2022-09-24T06:16:34;31.60;;;16.37;;
21089;SDS011;10703;51.020;6.128;2022-09-24T06:19:01;24.03;;;14.87;;
21089;SDS011;10703;51.020;6.128;2022-09-24T06:21:28;23.17;;;14.47;;
21089;SDS011;10703;51.020;6.128;2022-09-24T06:23:54;27.67;;;14.17;;
21089;SDS011;10703;51.020;6.128;2022-09-24T06:26:21;26.20;;;13.63;;
21089;SDS011;10703;51.020;6.128;2022-09-24T06:28:48;23.30;;;14.63;;
21089;SDS011;10703;51.020;6.128;2022-09-24T06:31:14;23.27;;;14.00;;
21089;SDS011;10703;51.020;6.128;2022-09-24T06:33:41;18.43;;;13.10;;
21089;SDS011;10703;51.020;6.128;2022-09-24T06:36:08;25.63;;;12.70;;
21089;SDS011;10703;51.020;6.128;2022-09-24T06:38:35;18.20;;;12.60;;
21089;SDS011;10703;51.020;6.128;2022-09-24T06:41:04;21.00;;;13.03;;
21089;SDS011;10703;51.020;6.128;2022-09-24T06:43:32;24.37;;;13.37;;
21089;SDS011;10703;51.020;6.128;2022-09-24T06:45:59;16.70;;;12.53;;
21089;SDS011;10703;51.020;6.128;2022-09-24T06:48:27;24.50;;;14.13;;
21089;SDS011;10703;51.020;6.128;2022-09-24T06:50:54;20.87;;;13.07;;
21089;SDS011;10703;51.020;6.128;2022-09-24T06:53:21;20.13;;;12.27;;
21089;SDS011;10703;51.020;6.128;2022-09-24T06:55:48;19.30;;;11.63;;
21089;SDS011;10703;51.020;6.128;2022-09-24T06:58:16;18.63;;;12.43;;
21089;SDS011;10703;51.020;6.128;2022-09-24T07:00:54;17.87;;;11.40;;
21089;SDS011;10703;51.020;6.128;2022-09-24T07:03:28;18.67;;;11.53;;
21089;SDS011;10703;51.020;6.128;2022-09-24T07:05:58;16.53;;;11.73;;
21089;SDS011;10703;51.020;6.128;2022-09-24T07:08:27;17.27;;;10.97;;
21089;SDS011;10703;51.020;6.128;2022-09-24T07:10:53;16.50;;;10.30;;
21089;SDS011;10703;51.020;6.128;2022-09-24T07:13:20;17.73;;;10.63;;
21089;SDS011;10703;51.020;6.128;2022-09-24T07:15:47;18.20;;;10.37;;
21089;SDS011;10703;51.020;6.128;2022-09-24T07:18:15;12.87;;;9.47;;
21089;SDS011;10703;51.020;6.128;2022-09-24T07:20:43;14.33;;;9.40;;
21089;SDS011;10703;51.020;6.128;2022-09-24T07:23:10;16.27;;;9.43;;
21089;SDS011;10703;51.020;6.128;2022-09-24T07:25:38;13.37;;;9.33;;
21089;SDS011;10703;51.020;6.128;2022-09-24T07:28:06;13.63;;;10.00;;
21089;SDS011;10703;51.020;6.128;2022-09-24T07:30:35;16.90;;;10.23;;
21089;SDS011;10703;51.020;6.128;2022-09-24T07:33:02;15.80;;;9.70;;
21089;SDS011;10703;51.020;6.128;2022-09-24T07:35:29;14.83;;;9.50;;
21089;SDS011;10703;51.020;6.128;2022-09-24T07:38:06;21.97;;;10.23;;
21089;SDS011;10703;51.020;6.128;2022-09-24T07:40:37;19.33;;;9.60;;
21089;SDS011;10703;51.020;6.128;2022-09-24T07:43:03;19.20;;;10.17;;
21089;SDS011;10703;51.020;6.128;2022-09-24T07:45:32;18.20;;;10.53;;
21089;SDS011;10703;51.020;6.128;2022-09-24T07:48:00;19.33;;;11.30;;
21089;SDS011;10703;51.020;6.128;2022-09-24T07:50:30;18.77;;;10.83;;
21089;SDS011;10703;51.020;6.128;2022-09-24T07:52:57;17.40;;;10.40;;
21089;SDS011;10703;51.020;6.128;2022-09-24T07:55:26;16.77;;;10.37;;
21089;SDS011;10703;51.020;6.128;2022-09-24T07:57:53;12.63;;;9.53;;
21089;SDS011;10703;51.020;6.128;2022-09-24T08:00:20;18.90;;;10.67;;
21089;SDS011;10703;51.020;6.128;2022-09-24T08:02:49;16.20;;;9.33;;
21089;SDS011;10703;51.020;6.128;2022-09-24T08:05:18;13.63;;;10.00;;
21089;SDS011;10703;51.020;6.128;2022-09-24T08:07:52;18.43;;;9.20;;
21089;SDS011;10703;51.020;6.128;2022-09-24T08:10:20;14.00;;;9.27;;
21089;SDS011;10703;51.020;6.128;2022-09-24T08:12:47;17.63;;;9.50;;
21089;SDS011;10703;51.020;6.128;2022-09-24T08:15:14;13.60;;;9.53;;
21089;SDS011;10703;51.020;6.128;2022-09-24T08:17:41;12.97;;;9.70;;
21089;SDS011;10703;51.020;6.128;2022-09-24T08:20:08;13.87;;;9.10;;
21089;SDS011;10703;51.020;6.128;2022-09-24T08:22:35;15.70;;;9.30;;
21089;SDS011;10703;51.020;6.128;2022-09-24T08:25:01;17.30;;;8.97;;
21089;SDS011;10703;51.020;6.128;2022-09-24T08:27:29;14.33;;;9.00;;
21089;SDS011;10703;51.020;6.128;2022-09-24T08:29:58;16.90;;;9.33;;
21089;SDS011;10703;51.020;6.128;2022-09-24T08:32:27;12.60;;;9.00;;
21089;SDS011;10703;51.020;6.128;2022-09-24T08:34:56;18.77;;;9.27;;
21089;SDS011;10703;51.020;6.128;2022-09-24T08:37:23;21.70;;;10.17;;
21089;SDS011;10703;51.020;6.128;2022-09-24T08:39:51;18.70;;;9.57;;
21089;SDS011;10703;51.020;6.128;2022-09-24T08:44:51;15.77;;;9.00;;
21089;SDS011;10703;51.020;6.128;2022-09-24T08:47:43;14.20;;;9.03;;
21089;SDS011;10703;51.020;6.128;2022-09-24T08:52:54;17.37;;;9.80;;
21089;SDS011;10703;51.020;6.128;2022-09-24T08:55:34;14.70;;;9.40;;
21089;SDS011;10703;51.020;6.128;2022-09-24T09:00:35;25.63;;;10.87;;
21089;SDS011;10703;51.020;6.128;2022-09-24T09:03:11;16.53;;;10.27;;
21089;SDS011;10703;51.020;6.128;2022-09-24T09:05:52;17.03;;;9.90;;
21089;SDS011;10703;51.020;6.128;2022-09-24T09:08:27;17.10;;;10.27;;
21089;SDS011;10703;51.020;6.128;2022-09-24T09:11:19;14.57;;;9.97;;
21089;SDS011;10703;51.020;6.128;2022-09-24T09:13:52;16.30;;;10.53;;
21089;SDS011;10703;51.020;6.128;2022-09-24T09:19:14;19.30;;;10.23;;
21089;SDS011;10703;51.020;6.128;2022-09-24T09:21:47;14.33;;;10.10;;
21089;SDS011;10703;51.020;6.128;2022-09-24T09:24:20;15.63;;;10.17;;
21089;SDS011;10703;51.020;6.128;2022-09-24T09:26:55;14.53;;;9.43;;
21089;SDS011;10703;51.020;6.128;2022-09-24T09:29:22;17.17;;;10.40;;
21089;SDS011;10703;51.020;6.128;2022-09-24T09:32:03;14.03;;;9.43;;
21089;SDS011;10703;51.020;6.128;2022-09-24T09:40:40;18.33;;;9.90;;
21089;SDS011;10703;51.020;6.128;2022-09-24T09:42:43;16.13;;;9.10;;
21089;SDS011;10703;51.020;6.128;2022-09-24T09:47:58;14.97;;;9.53;;
21089;SDS011;10703;51.020;6.128;2022-09-24T09:50:42;10.33;;;6.23;;
21089;SDS011;10703;51.020;6.128;2022-09-24T09:53:19;10.33;;;7.80;;
21089;SDS011;10703;51.020;6.128;2022-09-24T09:55:54;17.93;;;8.30;;
21089;SDS011;10703;51.020;6.128;2022-09-24T09:58:23;16.07;;;7.50;;
21089;SDS011;10703;51.020;6.128;2022-09-24T10:00:52;12.45;;;7.65;;
21089;SDS011;10703;51.020;6.128;2022-09-24T10:03:28;11.00;;;7.40;;
21089;SDS011;10703;51.020;6.128;2022-09-24T10:08:49;10.68;;;6.68;;
21089;SDS011;10703;51.020;6.128;2022-09-24T10:11:17;13.52;;;6.85;;
21089;SDS011;10703;51.020;6.128;2022-09-24T10:13:45;12.00;;;7.10;;
21089;SDS011;10703;51.020;6.128;2022-09-24T10:16:12;8.77;;;6.22;;
21089;SDS011;10703;51.020;6.128;2022-09-24T10:18:48;12.95;;;6.55;;
21089;SDS011;10703;51.020;6.128;2022-09-24T10:21:34;10.30;;;6.22;;
21089;SDS011;10703;51.020;6.128;2022-09-24T10:24:02;8.25;;;5.72;;
21089;SDS011;10703;51.020;6.128;2022-09-24T10:26:35;9.05;;;5.53;;
21089;SDS011;10703;51.020;6.128;2022-09-24T10:29:15;8.32;;;5.50;;
21089;SDS011;10703;51.020;6.128;2022-09-24T10:32:16;9.20;;;5.72;;
21089;SDS011;10703;51.020;6.128;2022-09-24T10:34:56;8.48;;;5.82;;
21089;SDS011;10703;51.020;6.128;2022-09-24T10:37:24;7.75;;;5.65;;
21089;SDS011;10703;51.020;6.128;2022-09-24T10:42:25;7.57;;;5.47;;
21089;SDS011;10703;51.020;6.128;2022-09-24T10:44:55;8.23;;;5.60;;
21089;SDS011;10703;51.020;6.128;2022-09-24T10:47:26;8.73;;;6.47;;
21089;SDS011;10703;51.020;6.128;2022-09-24T10:52:48;10.25;;;6.47;;
21089;SDS011;10703;51.020;6.128;2022-09-24T11:12:48;10.80;;;6.97;;
21089;SDS011;10703;51.020;6.128;2022-09-24T11:15:25;10.38;;;7.13;;
21089;SDS011;10703;51.020;6.128;2022-09-24T11:21:09;10.30;;;7.63;;
21089;SDS011;10703;51.020;6.128;2022-09-24T11:23:55;13.70;;;7.43;;
21089;SDS011;10703;51.020;6.128;2022-09-24T11:32:33;10.83;;;7.77;;
21089;SDS011;10703;51.020;6.128;2022-09-24T11:38:08;12.30;;;7.67;;
21089;SDS011;10703;51.020;6.128;2022-09-24T11:41:15;15.53;;;7.93;;
21089;SDS011;10703;51.020;6.128;2022-09-24T11:44:03;11.90;;;7.50;;
21089;SDS011;10703;51.020;6.128;2022-09-24T12:00:36;11.13;;;7.10;;
21089;SDS011;10703;51.020;6.128;2022-09-24T12:03:15;10.95;;;7.15;;
21089;SDS011;10703;51.020;6.128;2022-09-24T12:06:01;11.15;;;6.70;;
21089;SDS011;10703;51.020;6.128;2022-09-24T12:08:58;10.77;;;7.45;;
21089;SDS011;10703;51.020;6.128;2022-09-24T12:11:31;13.00;;;7.47;;
21089;SDS011;10703;51.020;6.128;2022-09-24T12:14:11;11.80;;;7.57;;
21089;SDS011;10703;51.020;6.128;2022-09-24T12:16:50;11.00;;;7.15;;
21089;SDS011;10703;51.020;6.128;2022-09-24T12:22:03;8.70;;;6.70;;
21089;SDS011;10703;51.020;6.128;2022-09-24T12:24:35;8.65;;;7.05;;
21089;SDS011;10703;51.020;6.128;2022-09-24T12:27:10;10.43;;;7.05;;
21089;SDS011;10703;51.020;6.128;2022-09-24T12:35:44;8.80;;;6.95;;
21089;SDS011;10703;51.020;6.128;2022-09-24T12:38:25;9.48;;;6.38;;
21089;SDS011;10703;51.020;6.128;2022-09-24T12:43:41;9.88;;;7.00;;
21089;SDS011;10703;51.020;6.128;2022-09-24T12:46:18;8.35;;;6.00;;
21089;SDS011;10703;51.020;6.128;2022-09-24T12:48:51;9.27;;;6.95;;
21089;SDS011;10703;51.020;6.128;2022-09-24T12:51:20;10.93;;;7.38;;
21089;SDS011;10703;51.020;6.128;2022-09-24T12:53:54;9.65;;;6.35;;
21089;SDS011;10703;51.020;6.128;2022-09-24T12:56:23;12.77;;;7.32;;
21089;SDS011;10703;51.020;6.128;2022-09-24T12:58:52;10.60;;;6.90;;
21089;SDS011;10703;51.020;6.128;2022-09-24T13:06:41;11.70;;;7.40;;
21089;SDS011;10703;51.020;6.128;2022-09-24T13:09:23;9.18;;;7.00;;
21089;SDS011;10703;51.020;6.128;2022-09-24T13:14:31;10.07;;;7.38;;
21089;SDS011;10703;51.020;6.128;2022-09-24T13:17:03;13.32;;;7.65;;
21089;SDS011;10703;51.020;6.128;2022-09-24T13:19:44;10.47;;;7.10;;
21089;SDS011;10703;51.020;6.128;2022-09-24T13:22:24;11.73;;;7.17;;
21089;SDS011;10703;51.020;6.128;2022-09-24T13:32:58;10.80;;;7.28;;
21089;SDS011;10703;51.020;6.128;2022-09-24T13:35:44;9.82;;;7.05;;
21089;SDS011;10703;51.020;6.128;2022-09-24T13:38:33;10.93;;;7.07;;
21089;SDS011;10703;51.020;6.128;2022-09-24T13:41:04;9.65;;;6.95;;
21089;SDS011;10703;51.020;6.128;2022-09-24T13:44:00;15.63;;;7.47;;
21089;SDS011;10703;51.020;6.128;2022-09-24T13:46:32;8.30;;;6.63;;
21089;SDS011;10703;51.020;6.128;2022-09-24T13:49:02;8.55;;;6.90;;
21089;SDS011;10703;51.020;6.128;2022-09-24T13:51:34;9.70;;;5.95;;
21089;SDS011;10703;51.020;6.128;2022-09-24T13:56:41;11.38;;;6.50;;
21089;SDS011;10703;51.020;6.128;2022-09-24T13:59:09;10.23;;;6.85;;
21089;SDS011;10703;51.020;6.128;2022-09-24T14:01:41;9.70;;;6.20;;
21089;SDS011;10703;51.020;6.128;2022-09-24T14:04:15;8.15;;;6.10;;
21089;SDS011;10703;51.020;6.128;2022-09-24T14:06:46;8.52;;;5.93;;
21089;SDS011;10703;51.020;6.128;2022-09-24T14:11:59;9.45;;;6.95;;
21089;SDS011;10703;51.020;6.128;2022-09-24T14:14:28;10.25;;;7.50;;
21089;SDS011;10703;51.020;6.128;2022-09-24T14:17:08;9.23;;;6.80;;
21089;SDS011;10703;51.020;6.128;2022-09-24T14:19:39;11.68;;;7.50;;
21089;SDS011;10703;51.020;6.128;2022-09-24T14:22:11;12.35;;;7.72;;
21089;SDS011;10703;51.020;6.128;2022-09-24T14:24:43;9.40;;;6.93;;
21089;SDS011;10703;51.020;6.128;2022-09-24T14:27:18;13.45;;;9.00;;
21089;SDS011;10703;51.020;6.128;2022-09-24T14:29:52;13.93;;;8.18;;
21089;SDS011;10703;51.020;6.128;2022-09-24T14:32:34;15.27;;;8.15;;
21089;SDS011;10703;51.020;6.128;2022-09-24T14:35:06;11.80;;;7.22;;
21089;SDS011;10703;51.020;6.128;2022-09-24T14:37:49;12.27;;;7.75;;
21089;SDS011;10703;51.020;6.128;2022-09-24T14:40:18;8.80;;;7.05;;
21089;SDS011;10703;51.020;6.128;2022-09-24T14:42:48;8.57;;;6.35;;
21089;SDS011;10703;51.020;6.128;2022-09-24T14:45:21;11.15;;;6.63;;
21089;SDS011;10703;51.020;6.128;2022-09-24T14:48:00;8.15;;;6.05;;
21089;SDS011;10703;51.020;6.128;2022-09-24T14:50:36;8.30;;;5.57;;
21089;SDS011;10703;51.020;6.128;2022-09-24T14:53:38;9.80;;;6.00;;
21089;SDS011;10703;51.020;6.128;2022-09-24T14:56:05;9.93;;;6.67;;
21089;SDS011;10703;51.020;6.128;2022-09-24T14:58:52;9.17;;;6.20;;
21089;SDS011;10703;51.020;6.128;2022-09-24T15:01:20;11.90;;;7.10;;
21089;SDS011;10703;51.020;6.128;2022-09-24T15:03:51;10.37;;;7.30;;
21089;SDS011;10703;51.020;6.128;2022-09-24T15:06:21;11.17;;;7.63;;
21089;SDS011;10703;51.020;6.128;2022-09-24T15:09:01;8.80;;;6.23;;
21089;SDS011;10703;51.020;6.128;2022-09-24T15:11:33;11.47;;;6.53;;
21089;SDS011;10703;51.020;6.128;2022-09-24T15:14:11;7.70;;;5.63;;
21089;SDS011;10703;51.020;6.128;2022-09-24T15:16:40;9.43;;;5.67;;
21089;SDS011;10703;51.020;6.128;2022-09-24T15:19:20;9.20;;;5.90;;
21089;SDS011;10703;51.020;6.128;2022-09-24T15:21:49;16.73;;;7.87;;
21089;SDS011;10703;51.020;6.128;2022-09-24T15:24:18;9.90;;;6.30;;
21089;SDS011;10703;51.020;6.128;2022-09-24T15:26:46;16.20;;;8.37;;
21089;SDS011;10703;51.020;6.128;2022-09-24T15:29:33;21.57;;;9.50;;
21089;SDS011;10703;51.020;6.128;2022-09-24T15:32:00;13.60;;;7.90;;
21089;SDS011;10703;51.020;6.128;2022-09-24T15:34:27;22.43;;;10.37;;
21089;SDS011;10703;51.020;6.128;2022-09-24T15:36:54;16.90;;;8.43;;
21089;SDS011;10703;51.020;6.128;2022-09-24T15:39:24;17.17;;;8.20;;
21089;SDS011;10703;51.020;6.128;2022-09-24T15:41:52;12.90;;;6.80;;
21089;SDS011;10703;51.020;6.128;2022-09-24T15:44:20;10.67;;;7.10;;
21089;SDS011;10703;51.020;6.128;2022-09-24T15:46:49;10.67;;;7.90;;
21089;SDS011;10703;51.020;6.128;2022-09-24T15:49:17;19.83;;;10.10;;
21089;SDS011;10703;51.020;6.128;2022-09-24T15:51:51;17.63;;;8.93;;
21089;SDS011;10703;51.020;6.128;2022-09-24T15:54:18;12.37;;;8.43;;
21089;SDS011;10703;51.020;6.128;2022-09-24T15:56:46;11.07;;;7.83;;
21089;SDS011;10703;51.020;6.128;2022-09-24T15:59:18;10.50;;;7.57;;
21089;SDS011;10703;51.020;6.128;2022-09-24T16:01:46;10.93;;;6.70;;
21089;SDS011;10703;51.020;6.128;2022-09-24T16:04:14;8.50;;;6.63;;
21089;SDS011;10703;51.020;6.128;2022-09-24T16:06:42;10.07;;;7.20;;
21089;SDS011;10703;51.020;6.128;2022-09-24T16:09:08;9.37;;;7.27;;
21089;SDS011;10703;51.020;6.128;2022-09-24T16:11:35;9.60;;;7.00;;
21089;SDS011;10703;51.020;6.128;2022-09-24T16:14:02;11.40;;;6.63;;
21089;SDS011;10703;51.020;6.128;2022-09-24T16:16:28;9.77;;;7.53;;
21089;SDS011;10703;51.020;6.128;2022-09-24T16:18:55;9.53;;;7.47;;
21089;SDS011;10703;51.020;6.128;2022-09-24T16:21:22;10.73;;;8.20;;
21089;SDS011;10703;51.020;6.128;2022-09-24T16:23:55;12.73;;;8.37;;
21089;SDS011;10703;51.020;6.128;2022-09-24T16:26:22;16.03;;;9.20;;
21089;SDS011;10703;51.020;6.128;2022-09-24T16:28:49;13.33;;;9.30;;
21089;SDS011;10703;51.020;6.128;2022-09-24T16:31:19;12.37;;;9.53;;
21089;SDS011;10703;51.020;6.128;2022-09-24T16:33:46;13.83;;;9.80;;
21089;SDS011;10703;51.020;6.128;2022-09-24T16:36:13;15.03;;;10.30;;
21089;SDS011;10703;51.020;6.128;2022-09-24T16:38:40;13.07;;;10.13;;
21089;SDS011;10703;51.020;6.128;2022-09-24T16:41:06;13.33;;;10.50;;
21089;SDS011;10703;51.020;6.128;2022-09-24T16:43:33;16.37;;;11.20;;
21089;SDS011;10703;51.020;6.128;2022-09-24T16:46:04;14.77;;;11.63;;
21089;SDS011;10703;51.020;6.128;2022-09-24T16:48:33;14.83;;;10.87;;
21089;SDS011;10703;51.020;6.128;2022-09-24T16:51:00;15.53;;;10.80;;
21089;SDS011;10703;51.020;6.128;2022-09-24T16:53:34;15.97;;;11.13;;